sensor_id;sensor_type;location;lat;lon;timestamp;temperature;humidity
56761;DHT22;42633;44.494;11.356;2023-02-01T00:01:55;8.60;91.40
56761;DHT22;42633;44.494;11.356;2023-02-01T00:04:58;8.60;91.10
56761;DHT22;42633;44.494;11.356;2023-02-01T00:08:03;8.50;91.30
56761;DHT22;42633;44.494;11.356;2023-02-01T00:11:09;8.50;91.20
56761;DHT22;42633;44.494;11.356;2023-02-01T00:14:13;8.50;91.10
56761;DHT22;42633;44.494;11.356;2023-02-01T00:17:17;8.50;90.90
56761;DHT22;42633;44.494;11.356;2023-02-01T00:20:21;8.50;90.90
56761;DHT22;42633;44.494;11.356;2023-02-01T00:23:25;8.50;90.90
56761;DHT22;42633;44.494;11.356;2023-02-01T00:26:44;8.50;90.60
56761;DHT22;42633;44.494;11.356;2023-02-01T00:29:48;8.40;90.80
56761;DHT22;42633;44.494;11.356;2023-02-01T00:32:52;8.40;90.30
56761;DHT22;42633;44.494;11.356;2023-02-01T00:36:00;8.40;90.20
56761;DHT22;42633;44.494;11.356;2023-02-01T00:39:05;8.40;90.30
56761;DHT22;42633;44.494;11.356;2023-02-01T00:42:09;8.40;90.10
56761;DHT22;42633;44.494;11.356;2023-02-01T00:45:13;8.40;90.00
56761;DHT22;42633;44.494;11.356;2023-02-01T00:48:17;8.30;89.70
56761;DHT22;42633;44.494;11.356;2023-02-01T00:51:24;8.30;90.20
56761;DHT22;42633;44.494;11.356;2023-02-01T00:54:28;8.20;90.30
56761;DHT22;42633;44.494;11.356;2023-02-01T00:57:32;8.20;90.00
56761;DHT22;42633;44.494;11.356;2023-02-01T01:00:36;8.20;90.10
56761;DHT22;42633;44.494;11.356;2023-02-01T01:03:43;8.20;90.00
56761;DHT22;42633;44.494;11.356;2023-02-01T01:06:47;8.20;90.10
56761;DHT22;42633;44.494;11.356;2023-02-01T01:09:51;8.20;90.10
56761;DHT22;42633;44.494;11.356;2023-02-01T01:12:55;8.20;90.60
56761;DHT22;42633;44.494;11.356;2023-02-01T01:16:01;8.10;90.70
56761;DHT22;42633;44.494;11.356;2023-02-01T01:19:06;8.10;90.60
56761;DHT22;42633;44.494;11.356;2023-02-01T01:22:10;8.00;90.50
56761;DHT22;42633;44.494;11.356;2023-02-01T01:25:14;8.00;90.40
56761;DHT22;42633;44.494;11.356;2023-02-01T01:28:18;8.00;90.60
56761;DHT22;42633;44.494;11.356;2023-02-01T01:31:22;7.90;90.40
56761;DHT22;42633;44.494;11.356;2023-02-01T01:34:27;8.00;90.30
56761;DHT22;42633;44.494;11.356;2023-02-01T01:37:32;8.00;90.50
56761;DHT22;42633;44.494;11.356;2023-02-01T01:40:36;7.90;90.50
56761;DHT22;42633;44.494;11.356;2023-02-01T01:47:39;7.90;90.40
56761;DHT22;42633;44.494;11.356;2023-02-01T01:54:03;7.80;90.50
56761;DHT22;42633;44.494;11.356;2023-02-01T01:57:33;7.80;90.60
56761;DHT22;42633;44.494;11.356;2023-02-01T02:00:40;7.80;90.90
56761;DHT22;42633;44.494;11.356;2023-02-01T02:03:46;7.70;91.10
56761;DHT22;42633;44.494;11.356;2023-02-01T02:07:01;7.70;91.30
56761;DHT22;42633;44.494;11.356;2023-02-01T02:10:09;7.70;91.40
56761;DHT22;42633;44.494;11.356;2023-02-01T02:13:18;7.70;91.60
56761;DHT22;42633;44.494;11.356;2023-02-01T02:27:33;7.70;91.50
56761;DHT22;42633;44.494;11.356;2023-02-01T02:40:51;7.70;91.20
56761;DHT22;42633;44.494;11.356;2023-02-01T02:44:01;7.70;91.30
56761;DHT22;42633;44.494;11.356;2023-02-01T02:47:44;7.70;91.50
56761;DHT22;42633;44.494;11.356;2023-02-01T02:54:32;7.70;91.50
56761;DHT22;42633;44.494;11.356;2023-02-01T02:57:56;7.70;91.80
56761;DHT22;42633;44.494;11.356;2023-02-01T03:01:20;7.70;92.20
56761;DHT22;42633;44.494;11.356;2023-02-01T03:04:42;7.60;92.30
56761;DHT22;42633;44.494;11.356;2023-02-01T03:11:01;7.60;92.90
56761;DHT22;42633;44.494;11.356;2023-02-01T03:14:08;7.60;93.00
56761;DHT22;42633;44.494;11.356;2023-02-01T03:17:15;7.60;93.10
56761;DHT22;42633;44.494;11.356;2023-02-01T03:20:22;7.60;93.40
56761;DHT22;42633;44.494;11.356;2023-02-01T03:23:31;7.60;93.50
56761;DHT22;42633;44.494;11.356;2023-02-01T03:26:41;7.60;93.80
56761;DHT22;42633;44.494;11.356;2023-02-01T03:32:55;7.60;94.30
56761;DHT22;42633;44.494;11.356;2023-02-01T03:36:18;7.70;94.50
56761;DHT22;42633;44.494;11.356;2023-02-01T03:39:48;7.70;94.80
56761;DHT22;42633;44.494;11.356;2023-02-01T03:42:59;7.70;95.00
56761;DHT22;42633;44.494;11.356;2023-02-01T03:46:10;7.70;95.20
56761;DHT22;42633;44.494;11.356;2023-02-01T03:49:27;7.70;95.30
56761;DHT22;42633;44.494;11.356;2023-02-01T03:52:53;7.60;95.90
56761;DHT22;42633;44.494;11.356;2023-02-01T03:55:58;7.60;96.30
56761;DHT22;42633;44.494;11.356;2023-02-01T03:59:02;7.50;96.60
56761;DHT22;42633;44.494;11.356;2023-02-01T04:02:11;7.50;96.90
56761;DHT22;42633;44.494;11.356;2023-02-01T04:05:15;7.50;97.10
56761;DHT22;42633;44.494;11.356;2023-02-01T04:08:27;7.40;97.50
56761;DHT22;42633;44.494;11.356;2023-02-01T04:11:31;7.40;97.90
56761;DHT22;42633;44.494;11.356;2023-02-01T04:14:35;7.40;98.20
56761;DHT22;42633;44.494;11.356;2023-02-01T04:17:39;7.40;98.50
56761;DHT22;42633;44.494;11.356;2023-02-01T04:20:44;7.40;98.50
56761;DHT22;42633;44.494;11.356;2023-02-01T04:23:48;7.40;98.70
56761;DHT22;42633;44.494;11.356;2023-02-01T04:26:52;7.30;98.90
56761;DHT22;42633;44.494;11.356;2023-02-01T04:29:57;7.30;98.80
56761;DHT22;42633;44.494;11.356;2023-02-01T04:33:00;7.30;99.00
56761;DHT22;42633;44.494;11.356;2023-02-01T04:36:07;7.20;99.00
56761;DHT22;42633;44.494;11.356;2023-02-01T04:39:11;7.20;99.00
56761;DHT22;42633;44.494;11.356;2023-02-01T04:42:15;7.20;99.00
56761;DHT22;42633;44.494;11.356;2023-02-01T04:45:19;7.10;99.00
56761;DHT22;42633;44.494;11.356;2023-02-01T04:48:23;7.10;99.00
56761;DHT22;42633;44.494;11.356;2023-02-01T04:51:27;7.10;99.20
56761;DHT22;42633;44.494;11.356;2023-02-01T04:54:31;7.00;99.20
56761;DHT22;42633;44.494;11.356;2023-02-01T04:57:35;7.00;99.30
56761;DHT22;42633;44.494;11.356;2023-02-01T05:00:41;7.00;99.40
56761;DHT22;42633;44.494;11.356;2023-02-01T05:03:45;7.00;99.70
56761;DHT22;42633;44.494;11.356;2023-02-01T05:06:49;7.00;99.80
56761;DHT22;42633;44.494;11.356;2023-02-01T05:09:53;7.00;99.90
56761;DHT22;42633;44.494;11.356;2023-02-01T05:12:57;7.00;99.90
56761;DHT22;42633;44.494;11.356;2023-02-01T05:16:20;7.00;99.90
56761;DHT22;42633;44.494;11.356;2023-02-01T05:19:24;6.90;99.90
56761;DHT22;42633;44.494;11.356;2023-02-01T05:22:28;6.90;99.90
56761;DHT22;42633;44.494;11.356;2023-02-01T05:25:32;6.90;99.90
56761;DHT22;42633;44.494;11.356;2023-02-01T05:28:35;6.80;99.90
56761;DHT22;42633;44.494;11.356;2023-02-01T05:31:39;6.80;99.90
56761;DHT22;42633;44.494;11.356;2023-02-01T05:34:44;6.90;99.90
56761;DHT22;42633;44.494;11.356;2023-02-01T05:37:48;6.90;99.90
56761;DHT22;42633;44.494;11.356;2023-02-01T05:40:52;6.90;99.90
56761;DHT22;42633;44.494;11.356;2023-02-01T05:43:56;6.80;99.90
56761;DHT22;42633;44.494;11.356;2023-02-01T05:47:00;6.90;99.90
56761;DHT22;42633;44.494;11.356;2023-02-01T05:50:05;6.80;99.90
56761;DHT22;42633;44.494;11.356;2023-02-01T05:53:09;6.80;99.90
56761;DHT22;42633;44.494;11.356;2023-02-01T05:56:13;6.80;99.90
56761;DHT22;42633;44.494;11.356;2023-02-01T05:59:17;6.80;99.90
56761;DHT22;42633;44.494;11.356;2023-02-01T06:02:21;6.80;99.90
56761;DHT22;42633;44.494;11.356;2023-02-01T06:05:25;6.80;99.90
56761;DHT22;42633;44.494;11.356;2023-02-01T06:08:29;6.70;99.90
56761;DHT22;42633;44.494;11.356;2023-02-01T06:11:33;6.70;99.90
56761;DHT22;42633;44.494;11.356;2023-02-01T06:14:37;6.80;99.90
56761;DHT22;42633;44.494;11.356;2023-02-01T06:17:43;6.70;99.90
56761;DHT22;42633;44.494;11.356;2023-02-01T06:20:57;6.70;99.90
56761;DHT22;42633;44.494;11.356;2023-02-01T06:24:03;6.80;99.90
56761;DHT22;42633;44.494;11.356;2023-02-01T06:27:07;6.80;99.90
56761;DHT22;42633;44.494;11.356;2023-02-01T06:30:13;6.90;99.90
56761;DHT22;42633;44.494;11.356;2023-02-01T06:33:17;6.90;99.90
56761;DHT22;42633;44.494;11.356;2023-02-01T06:36:21;6.90;99.90
56761;DHT22;42633;44.494;11.356;2023-02-01T06:39:26;6.90;99.90
56761;DHT22;42633;44.494;11.356;2023-02-01T06:42:32;6.90;99.90
56761;DHT22;42633;44.494;11.356;2023-02-01T06:45:36;7.00;99.90
56761;DHT22;42633;44.494;11.356;2023-02-01T06:48:41;7.00;99.90
56761;DHT22;42633;44.494;11.356;2023-02-01T06:51:45;7.00;99.90
56761;DHT22;42633;44.494;11.356;2023-02-01T06:54:49;7.10;99.90
56761;DHT22;42633;44.494;11.356;2023-02-01T06:57:54;7.10;99.90
56761;DHT22;42633;44.494;11.356;2023-02-01T07:01:04;7.10;99.90
56761;DHT22;42633;44.494;11.356;2023-02-01T07:04:10;7.20;99.90
56761;DHT22;42633;44.494;11.356;2023-02-01T07:07:15;7.20;99.90
56761;DHT22;42633;44.494;11.356;2023-02-01T07:10:19;7.40;99.90
56761;DHT22;42633;44.494;11.356;2023-02-01T07:13:23;7.40;99.90
56761;DHT22;42633;44.494;11.356;2023-02-01T07:16:27;7.40;99.90
56761;DHT22;42633;44.494;11.356;2023-02-01T07:19:32;7.50;99.90
56761;DHT22;42633;44.494;11.356;2023-02-01T07:22:36;7.60;99.90
56761;DHT22;42633;44.494;11.356;2023-02-01T07:25:40;7.60;99.90
56761;DHT22;42633;44.494;11.356;2023-02-01T07:28:44;7.70;99.90
56761;DHT22;42633;44.494;11.356;2023-02-01T07:31:50;7.70;99.90
56761;DHT22;42633;44.494;11.356;2023-02-01T07:34:54;7.80;99.90
56761;DHT22;42633;44.494;11.356;2023-02-01T07:37:58;7.90;99.90
56761;DHT22;42633;44.494;11.356;2023-02-01T07:41:04;8.00;99.90
56761;DHT22;42633;44.494;11.356;2023-02-01T07:44:09;8.10;99.90
56761;DHT22;42633;44.494;11.356;2023-02-01T07:47:13;8.20;99.90
56761;DHT22;42633;44.494;11.356;2023-02-01T07:50:17;8.40;99.90
56761;DHT22;42633;44.494;11.356;2023-02-01T07:53:21;8.50;99.90
56761;DHT22;42633;44.494;11.356;2023-02-01T07:56:25;8.70;99.60
56761;DHT22;42633;44.494;11.356;2023-02-01T07:59:29;8.80;99.30
56761;DHT22;42633;44.494;11.356;2023-02-01T08:02:33;9.00;99.10
56761;DHT22;42633;44.494;11.356;2023-02-01T08:05:38;9.30;98.90
56761;DHT22;42633;44.494;11.356;2023-02-01T08:08:42;9.50;98.50
56761;DHT22;42633;44.494;11.356;2023-02-01T08:11:48;9.60;98.40
56761;DHT22;42633;44.494;11.356;2023-02-01T08:14:53;9.60;98.40
56761;DHT22;42633;44.494;11.356;2023-02-01T08:17:57;9.60;98.30
56761;DHT22;42633;44.494;11.356;2023-02-01T08:21:07;9.70;98.50
56761;DHT22;42633;44.494;11.356;2023-02-01T08:24:12;9.90;98.30
56761;DHT22;42633;44.494;11.356;2023-02-01T08:27:16;10.20;98.00
56761;DHT22;42633;44.494;11.356;2023-02-01T08:30:20;10.30;97.70
56761;DHT22;42633;44.494;11.356;2023-02-01T08:33:25;10.40;97.70
56761;DHT22;42633;44.494;11.356;2023-02-01T08:36:30;10.40;97.80
56761;DHT22;42633;44.494;11.356;2023-02-01T08:39:35;10.40;97.60
56761;DHT22;42633;44.494;11.356;2023-02-01T08:42:41;10.50;97.80
56761;DHT22;42633;44.494;11.356;2023-02-01T08:45:57;10.50;97.40
56761;DHT22;42633;44.494;11.356;2023-02-01T08:49:01;10.50;97.30
56761;DHT22;42633;44.494;11.356;2023-02-01T08:52:05;10.50;97.20
56761;DHT22;42633;44.494;11.356;2023-02-01T08:55:10;10.60;96.90
56761;DHT22;42633;44.494;11.356;2023-02-01T08:58:14;10.60;96.50
56761;DHT22;42633;44.494;11.356;2023-02-01T09:01:21;10.70;95.90
56761;DHT22;42633;44.494;11.356;2023-02-01T09:04:25;10.60;95.80
56761;DHT22;42633;44.494;11.356;2023-02-01T09:07:31;10.60;95.90
56761;DHT22;42633;44.494;11.356;2023-02-01T09:10:36;10.60;95.90
56761;DHT22;42633;44.494;11.356;2023-02-01T09:13:41;10.70;95.90
56761;DHT22;42633;44.494;11.356;2023-02-01T09:16:45;10.60;95.90
56761;DHT22;42633;44.494;11.356;2023-02-01T09:19:49;10.50;96.30
56761;DHT22;42633;44.494;11.356;2023-02-01T09:22:55;10.60;96.20
56761;DHT22;42633;44.494;11.356;2023-02-01T09:26:00;10.90;96.10
56761;DHT22;42633;44.494;11.356;2023-02-01T09:29:05;10.90;96.00
56761;DHT22;42633;44.494;11.356;2023-02-01T09:32:14;10.90;95.60
56761;DHT22;42633;44.494;11.356;2023-02-01T09:35:18;10.90;95.60
56761;DHT22;42633;44.494;11.356;2023-02-01T09:38:22;10.90;95.80
56761;DHT22;42633;44.494;11.356;2023-02-01T09:41:38;11.00;95.80
56761;DHT22;42633;44.494;11.356;2023-02-01T09:45:03;11.30;95.10
56761;DHT22;42633;44.494;11.356;2023-02-01T09:48:14;11.30;94.90
56761;DHT22;42633;44.494;11.356;2023-02-01T09:51:31;11.20;95.30
56761;DHT22;42633;44.494;11.356;2023-02-01T09:55:20;11.40;95.80
56761;DHT22;42633;44.494;11.356;2023-02-01T09:58:42;11.60;95.30
56761;DHT22;42633;44.494;11.356;2023-02-01T10:01:47;11.90;95.00
56761;DHT22;42633;44.494;11.356;2023-02-01T10:04:55;12.10;94.40
56761;DHT22;42633;44.494;11.356;2023-02-01T10:08:19;12.10;94.30
56761;DHT22;42633;44.494;11.356;2023-02-01T10:18:20;12.30;94.00
56761;DHT22;42633;44.494;11.356;2023-02-01T10:25:08;12.30;94.20
56761;DHT22;42633;44.494;11.356;2023-02-01T10:28:16;12.60;93.60
56761;DHT22;42633;44.494;11.356;2023-02-01T10:31:26;12.80;93.40
56761;DHT22;42633;44.494;11.356;2023-02-01T10:34:34;12.80;93.10
56761;DHT22;42633;44.494;11.356;2023-02-01T10:37:41;12.80;93.10
56761;DHT22;42633;44.494;11.356;2023-02-01T10:40:49;12.90;92.90
56761;DHT22;42633;44.494;11.356;2023-02-01T10:43:58;13.00;93.00
56761;DHT22;42633;44.494;11.356;2023-02-01T10:47:09;13.00;92.80
56761;DHT22;42633;44.494;11.356;2023-02-01T10:50:41;13.00;92.60
56761;DHT22;42633;44.494;11.356;2023-02-01T10:54:00;13.10;92.50
56761;DHT22;42633;44.494;11.356;2023-02-01T10:57:10;13.00;92.60
56761;DHT22;42633;44.494;11.356;2023-02-01T11:00:20;13.20;92.40
56761;DHT22;42633;44.494;11.356;2023-02-01T11:06:40;13.30;91.90
56761;DHT22;42633;44.494;11.356;2023-02-01T11:09:50;13.40;91.40
56761;DHT22;42633;44.494;11.356;2023-02-01T11:12:55;13.30;91.40
56761;DHT22;42633;44.494;11.356;2023-02-01T11:16:02;13.30;91.70
56761;DHT22;42633;44.494;11.356;2023-02-01T11:19:06;13.50;91.70
56761;DHT22;42633;44.494;11.356;2023-02-01T11:22:24;13.70;91.30
56761;DHT22;42633;44.494;11.356;2023-02-01T11:25:37;13.90;90.70
56761;DHT22;42633;44.494;11.356;2023-02-01T11:29:05;14.10;90.40
56761;DHT22;42633;44.494;11.356;2023-02-01T11:32:49;13.90;90.30
56761;DHT22;42633;44.494;11.356;2023-02-01T11:36:28;13.80;90.10
56761;DHT22;42633;44.494;11.356;2023-02-01T11:40:00;13.70;90.50
56761;DHT22;42633;44.494;11.356;2023-02-01T11:43:26;13.70;90.10
56761;DHT22;42633;44.494;11.356;2023-02-01T11:50:17;13.70;90.20
56761;DHT22;42633;44.494;11.356;2023-02-01T12:00:51;14.80;88.20
56761;DHT22;42633;44.494;11.356;2023-02-01T12:11:41;15.10;88.10
56761;DHT22;42633;44.494;11.356;2023-02-01T12:15:11;15.50;87.30
56761;DHT22;42633;44.494;11.356;2023-02-01T12:35:49;14.50;90.00
56761;DHT22;42633;44.494;11.356;2023-02-01T12:42:39;14.40;90.40
56761;DHT22;42633;44.494;11.356;2023-02-01T12:45:53;14.50;90.30
56761;DHT22;42633;44.494;11.356;2023-02-01T12:53:04;14.60;90.30
56761;DHT22;42633;44.494;11.356;2023-02-01T12:59:56;14.60;90.10
56761;DHT22;42633;44.494;11.356;2023-02-01T13:03:29;14.70;90.10
56761;DHT22;42633;44.494;11.356;2023-02-01T13:06:43;14.70;90.30
56761;DHT22;42633;44.494;11.356;2023-02-01T13:10:24;14.70;89.70
56761;DHT22;42633;44.494;11.356;2023-02-01T13:13:55;14.80;89.50
56761;DHT22;42633;44.494;11.356;2023-02-01T13:17:04;14.90;88.60
56761;DHT22;42633;44.494;11.356;2023-02-01T13:23:45;14.90;88.30
56761;DHT22;42633;44.494;11.356;2023-02-01T13:26:53;14.90;88.50
56761;DHT22;42633;44.494;11.356;2023-02-01T13:29:59;15.00;88.20
56761;DHT22;42633;44.494;11.356;2023-02-01T13:40:33;14.80;89.90
56761;DHT22;42633;44.494;11.356;2023-02-01T13:43:41;14.80;89.10
56761;DHT22;42633;44.494;11.356;2023-02-01T13:46:48;14.90;89.00
56761;DHT22;42633;44.494;11.356;2023-02-01T13:49:55;14.90;89.10
56761;DHT22;42633;44.494;11.356;2023-02-01T13:56:11;14.40;90.00
56761;DHT22;42633;44.494;11.356;2023-02-01T13:59:55;14.30;89.50
56761;DHT22;42633;44.494;11.356;2023-02-01T14:03:11;14.30;90.10
56761;DHT22;42633;44.494;11.356;2023-02-01T14:09:36;14.60;90.00
56761;DHT22;42633;44.494;11.356;2023-02-01T14:12:46;14.70;90.00
56761;DHT22;42633;44.494;11.356;2023-02-01T14:16:19;14.70;90.20
56761;DHT22;42633;44.494;11.356;2023-02-01T14:19:29;14.70;89.70
56761;DHT22;42633;44.494;11.356;2023-02-01T14:22:35;14.70;89.30
56761;DHT22;42633;44.494;11.356;2023-02-01T14:25:40;14.70;89.00
56761;DHT22;42633;44.494;11.356;2023-02-01T14:29:17;14.70;89.30
56761;DHT22;42633;44.494;11.356;2023-02-01T14:32:26;14.80;89.70
56761;DHT22;42633;44.494;11.356;2023-02-01T14:35:34;14.80;89.70
56761;DHT22;42633;44.494;11.356;2023-02-01T14:38:38;14.70;89.50
56761;DHT22;42633;44.494;11.356;2023-02-01T14:41:44;14.70;90.20
56761;DHT22;42633;44.494;11.356;2023-02-01T14:44:52;14.80;90.00
56761;DHT22;42633;44.494;11.356;2023-02-01T14:51:13;14.70;89.50
56761;DHT22;42633;44.494;11.356;2023-02-01T14:54:18;14.60;89.40
56761;DHT22;42633;44.494;11.356;2023-02-01T14:57:26;14.60;89.60
56761;DHT22;42633;44.494;11.356;2023-02-01T15:00:32;14.50;89.30
56761;DHT22;42633;44.494;11.356;2023-02-01T15:03:49;14.40;89.60
56761;DHT22;42633;44.494;11.356;2023-02-01T15:06:57;14.40;90.00
56761;DHT22;42633;44.494;11.356;2023-02-01T15:10:02;14.40;89.90
56761;DHT22;42633;44.494;11.356;2023-02-01T15:13:18;14.40;90.00
56761;DHT22;42633;44.494;11.356;2023-02-01T15:16:24;14.30;89.10
56761;DHT22;42633;44.494;11.356;2023-02-01T15:19:29;14.20;89.70
56761;DHT22;42633;44.494;11.356;2023-02-01T15:22:37;14.10;90.40
56761;DHT22;42633;44.494;11.356;2023-02-01T15:25:46;13.90;90.60
56761;DHT22;42633;44.494;11.356;2023-02-01T15:28:50;13.90;90.70
56761;DHT22;42633;44.494;11.356;2023-02-01T15:31:54;13.70;91.50
56761;DHT22;42633;44.494;11.356;2023-02-01T15:35:00;13.60;91.70
56761;DHT22;42633;44.494;11.356;2023-02-01T15:41:32;13.50;92.30
56761;DHT22;42633;44.494;11.356;2023-02-01T15:47:49;13.40;92.70
56761;DHT22;42633;44.494;11.356;2023-02-01T15:50:55;13.30;92.90
56761;DHT22;42633;44.494;11.356;2023-02-01T15:54:05;13.20;93.30
56761;DHT22;42633;44.494;11.356;2023-02-01T15:57:12;13.10;93.80
56761;DHT22;42633;44.494;11.356;2023-02-01T16:00:28;13.00;94.10
56761;DHT22;42633;44.494;11.356;2023-02-01T16:03:41;13.00;94.30
56761;DHT22;42633;44.494;11.356;2023-02-01T16:06:53;12.90;94.60
56761;DHT22;42633;44.494;11.356;2023-02-01T16:10:00;12.80;94.90
56761;DHT22;42633;44.494;11.356;2023-02-01T16:13:10;12.70;95.10
56761;DHT22;42633;44.494;11.356;2023-02-01T16:16:14;12.70;95.10
56761;DHT22;42633;44.494;11.356;2023-02-01T16:19:20;12.70;95.20
56761;DHT22;42633;44.494;11.356;2023-02-01T16:22:26;12.60;95.60
56761;DHT22;42633;44.494;11.356;2023-02-01T16:25:30;12.50;95.70
56761;DHT22;42633;44.494;11.356;2023-02-01T16:28:35;12.50;95.70
56761;DHT22;42633;44.494;11.356;2023-02-01T16:31:39;12.50;95.90
56761;DHT22;42633;44.494;11.356;2023-02-01T16:34:45;12.40;96.40
56761;DHT22;42633;44.494;11.356;2023-02-01T16:37:50;12.30;96.40
56761;DHT22;42633;44.494;11.356;2023-02-01T16:40:54;12.20;96.70
56761;DHT22;42633;44.494;11.356;2023-02-01T16:43:58;12.10;96.80
56761;DHT22;42633;44.494;11.356;2023-02-01T16:47:03;12.10;96.80
56761;DHT22;42633;44.494;11.356;2023-02-01T16:50:18;12.00;97.10
56761;DHT22;42633;44.494;11.356;2023-02-01T16:53:26;12.00;97.30
56761;DHT22;42633;44.494;11.356;2023-02-01T16:56:34;12.10;96.90
56761;DHT22;42633;44.494;11.356;2023-02-01T16:59:40;11.90;97.10
56761;DHT22;42633;44.494;11.356;2023-02-01T17:02:44;11.90;97.20
56761;DHT22;42633;44.494;11.356;2023-02-01T17:05:52;11.70;97.50
56761;DHT22;42633;44.494;11.356;2023-02-01T17:08:58;11.70;97.70
56761;DHT22;42633;44.494;11.356;2023-02-01T17:12:04;11.60;98.10
56761;DHT22;42633;44.494;11.356;2023-02-01T17:15:09;11.60;98.30
56761;DHT22;42633;44.494;11.356;2023-02-01T17:18:16;11.60;98.40
56761;DHT22;42633;44.494;11.356;2023-02-01T17:21:20;11.50;98.40
56761;DHT22;42633;44.494;11.356;2023-02-01T17:24:28;11.50;98.80
56761;DHT22;42633;44.494;11.356;2023-02-01T17:27:32;11.40;99.20
56761;DHT22;42633;44.494;11.356;2023-02-01T17:30:38;11.40;99.30
56761;DHT22;42633;44.494;11.356;2023-02-01T17:33:43;11.40;99.70
56761;DHT22;42633;44.494;11.356;2023-02-01T17:36:51;11.40;99.60
56761;DHT22;42633;44.494;11.356;2023-02-01T17:39:55;11.40;99.70
56761;DHT22;42633;44.494;11.356;2023-02-01T17:43:16;11.40;99.90
56761;DHT22;42633;44.494;11.356;2023-02-01T17:46:21;11.40;99.90
56761;DHT22;42633;44.494;11.356;2023-02-01T17:49:29;11.40;99.90
56761;DHT22;42633;44.494;11.356;2023-02-01T17:52:33;11.50;99.90
56761;DHT22;42633;44.494;11.356;2023-02-01T17:55:44;11.50;99.90
56761;DHT22;42633;44.494;11.356;2023-02-01T17:58:48;11.50;99.90
56761;DHT22;42633;44.494;11.356;2023-02-01T18:01:52;11.60;99.90
56761;DHT22;42633;44.494;11.356;2023-02-01T18:04:59;11.50;99.90
56761;DHT22;42633;44.494;11.356;2023-02-01T18:08:03;11.50;99.90
56761;DHT22;42633;44.494;11.356;2023-02-01T18:11:15;11.50;99.90
56761;DHT22;42633;44.494;11.356;2023-02-01T18:14:19;11.50;99.90
56761;DHT22;42633;44.494;11.356;2023-02-01T18:17:24;11.40;99.90
56761;DHT22;42633;44.494;11.356;2023-02-01T18:20:30;11.40;99.90
56761;DHT22;42633;44.494;11.356;2023-02-01T18:23:35;11.40;99.90
56761;DHT22;42633;44.494;11.356;2023-02-01T18:26:42;11.40;99.90
56761;DHT22;42633;44.494;11.356;2023-02-01T18:29:47;11.30;99.90
56761;DHT22;42633;44.494;11.356;2023-02-01T18:32:52;11.20;99.90
56761;DHT22;42633;44.494;11.356;2023-02-01T18:35:57;11.20;99.90
56761;DHT22;42633;44.494;11.356;2023-02-01T18:39:02;11.10;99.90
56761;DHT22;42633;44.494;11.356;2023-02-01T18:42:08;11.10;99.90
56761;DHT22;42633;44.494;11.356;2023-02-01T18:45:39;11.00;99.90
56761;DHT22;42633;44.494;11.356;2023-02-01T18:48:44;11.00;99.90
56761;DHT22;42633;44.494;11.356;2023-02-01T18:51:48;10.90;99.90
56761;DHT22;42633;44.494;11.356;2023-02-01T18:54:54;10.90;99.90
56761;DHT22;42633;44.494;11.356;2023-02-01T18:58:00;10.90;99.90
56761;DHT22;42633;44.494;11.356;2023-02-01T19:01:08;10.90;99.90
56761;DHT22;42633;44.494;11.356;2023-02-01T19:04:12;10.90;99.90
56761;DHT22;42633;44.494;11.356;2023-02-01T19:07:17;10.80;99.90
56761;DHT22;42633;44.494;11.356;2023-02-01T19:10:22;10.80;99.90
56761;DHT22;42633;44.494;11.356;2023-02-01T19:13:26;10.90;99.90
56761;DHT22;42633;44.494;11.356;2023-02-01T19:16:34;10.80;99.90
56761;DHT22;42633;44.494;11.356;2023-02-01T19:19:42;10.80;99.90
56761;DHT22;42633;44.494;11.356;2023-02-01T19:22:48;10.80;99.90
56761;DHT22;42633;44.494;11.356;2023-02-01T19:25:52;10.70;99.90
56761;DHT22;42633;44.494;11.356;2023-02-01T19:28:59;10.80;99.90
56761;DHT22;42633;44.494;11.356;2023-02-01T19:32:04;10.80;99.90
56761;DHT22;42633;44.494;11.356;2023-02-01T19:35:09;10.80;99.90
56761;DHT22;42633;44.494;11.356;2023-02-01T19:38:15;10.70;99.90
56761;DHT22;42633;44.494;11.356;2023-02-01T19:41:20;10.70;99.90
56761;DHT22;42633;44.494;11.356;2023-02-01T19:44:25;10.60;99.90
56761;DHT22;42633;44.494;11.356;2023-02-01T19:47:32;10.60;99.90
56761;DHT22;42633;44.494;11.356;2023-02-01T19:50:35;10.60;99.90
56761;DHT22;42633;44.494;11.356;2023-02-01T19:53:39;10.60;99.90
56761;DHT22;42633;44.494;11.356;2023-02-01T19:56:44;10.60;99.90
56761;DHT22;42633;44.494;11.356;2023-02-01T19:59:48;10.60;99.90
56761;DHT22;42633;44.494;11.356;2023-02-01T20:02:53;10.50;99.90
56761;DHT22;42633;44.494;11.356;2023-02-01T20:05:58;10.50;99.90
56761;DHT22;42633;44.494;11.356;2023-02-01T20:09:03;10.40;99.90
56761;DHT22;42633;44.494;11.356;2023-02-01T20:12:09;10.20;99.90
56761;DHT22;42633;44.494;11.356;2023-02-01T20:15:14;10.10;99.90
56761;DHT22;42633;44.494;11.356;2023-02-01T20:18:18;10.00;99.90
56761;DHT22;42633;44.494;11.356;2023-02-01T20:21:22;10.00;99.90
56761;DHT22;42633;44.494;11.356;2023-02-01T20:24:26;10.10;99.90
56761;DHT22;42633;44.494;11.356;2023-02-01T20:27:30;10.10;99.90
56761;DHT22;42633;44.494;11.356;2023-02-01T20:30:34;10.30;99.90
56761;DHT22;42633;44.494;11.356;2023-02-01T20:33:39;10.30;99.90
56761;DHT22;42633;44.494;11.356;2023-02-01T20:36:43;10.20;99.90
56761;DHT22;42633;44.494;11.356;2023-02-01T20:39:47;10.10;99.90
56761;DHT22;42633;44.494;11.356;2023-02-01T20:42:51;10.00;99.90
56761;DHT22;42633;44.494;11.356;2023-02-01T20:45:55;10.20;99.90
56761;DHT22;42633;44.494;11.356;2023-02-01T20:48:59;10.30;99.90
56761;DHT22;42633;44.494;11.356;2023-02-01T20:52:03;10.50;99.90
56761;DHT22;42633;44.494;11.356;2023-02-01T20:55:07;10.70;99.90
56761;DHT22;42633;44.494;11.356;2023-02-01T20:58:12;10.70;99.90
56761;DHT22;42633;44.494;11.356;2023-02-01T21:01:16;10.80;99.90
56761;DHT22;42633;44.494;11.356;2023-02-01T21:04:25;10.70;99.90
56761;DHT22;42633;44.494;11.356;2023-02-01T21:07:30;10.70;99.90
56761;DHT22;42633;44.494;11.356;2023-02-01T21:10:34;10.50;99.90
56761;DHT22;42633;44.494;11.356;2023-02-01T21:13:42;10.50;99.90
56761;DHT22;42633;44.494;11.356;2023-02-01T21:16:53;10.40;99.90
56761;DHT22;42633;44.494;11.356;2023-02-01T21:19:58;10.30;99.90
56761;DHT22;42633;44.494;11.356;2023-02-01T21:23:02;10.30;99.90
56761;DHT22;42633;44.494;11.356;2023-02-01T21:26:06;10.20;99.90
56761;DHT22;42633;44.494;11.356;2023-02-01T21:29:13;10.20;99.90
56761;DHT22;42633;44.494;11.356;2023-02-01T21:32:17;10.30;99.90
56761;DHT22;42633;44.494;11.356;2023-02-01T21:35:21;10.40;99.90
56761;DHT22;42633;44.494;11.356;2023-02-01T21:38:26;10.40;99.90
56761;DHT22;42633;44.494;11.356;2023-02-01T21:41:31;10.40;99.90
56761;DHT22;42633;44.494;11.356;2023-02-01T21:44:54;10.40;99.90